sensor_id;sensor_type;location;lat;lon;timestamp;pressure;altitude;pressure_sealevel;temperature;humidity
40490;BME280;26196;52.302;10.572;2022-10-24T00:02:47;99963.16;;;17.72;59.27
40490;BME280;26196;52.302;10.572;2022-10-24T00:06:48;99947.38;;;17.71;58.89
40490;BME280;26196;52.302;10.572;2022-10-24T00:10:48;99973.75;;;17.72;58.87
40490;BME280;26196;52.302;10.572;2022-10-24T00:14:49;99966.75;;;17.71;58.97
40490;BME280;26196;52.302;10.572;2022-10-24T00:18:50;99961.47;;;17.71;58.99
40490;BME280;26196;52.302;10.572;2022-10-24T00:22:50;99968.66;;;17.69;59.18
40490;BME280;26196;52.302;10.572;2022-10-24T00:26:51;99962.50;;;17.69;59.08
40490;BME280;26196;52.302;10.572;2022-10-24T00:30:51;99967.81;;;17.69;59.03
40490;BME280;26196;52.302;10.572;2022-10-24T00:34:52;99975.75;;;17.69;58.96
40490;BME280;26196;52.302;10.572;2022-10-24T00:38:53;99969.63;;;17.68;59.05
40490;BME280;26196;52.302;10.572;2022-10-24T00:42:54;99967.06;;;17.67;58.68
40490;BME280;26196;52.302;10.572;2022-10-24T00:55:05;99946.94;;;17.64;59.06
40490;BME280;26196;52.302;10.572;2022-10-24T00:59:08;99953.09;;;17.65;58.64
40490;BME280;26196;52.302;10.572;2022-10-24T01:03:10;99951.38;;;17.64;58.61
40490;BME280;26196;52.302;10.572;2022-10-24T01:20:32;99924.38;;;17.59;58.78
40490;BME280;26196;52.302;10.572;2022-10-24T01:28:56;99939.31;;;17.60;58.52
40490;BME280;26196;52.302;10.572;2022-10-24T01:33:22;99920.03;;;17.58;58.80
40490;BME280;26196;52.302;10.572;2022-10-24T01:37:27;99927.00;;;17.59;58.98
40490;BME280;26196;52.302;10.572;2022-10-24T01:41:29;99921.72;;;17.59;58.67
40490;BME280;26196;52.302;10.572;2022-10-24T01:45:33;99923.63;;;17.57;58.63
40490;BME280;26196;52.302;10.572;2022-10-24T01:49:36;99929.66;;;17.59;58.72
40490;BME280;26196;52.302;10.572;2022-10-24T01:53:41;99922.78;;;17.56;58.60
40490;BME280;26196;52.302;10.572;2022-10-24T01:57:42;99922.78;;;17.56;58.82
40490;BME280;26196;52.302;10.572;2022-10-24T02:01:42;99928.19;;;17.55;58.92
40490;BME280;26196;52.302;10.572;2022-10-24T02:05:46;99926.38;;;17.55;58.82
40490;BME280;26196;52.302;10.572;2022-10-24T02:09:52;99909.94;;;17.50;58.60
40490;BME280;26196;52.302;10.572;2022-10-24T02:18:14;99918.53;;;17.54;58.87
40490;BME280;26196;52.302;10.572;2022-10-24T02:22:46;99910.72;;;17.52;58.67
40490;BME280;26196;52.302;10.572;2022-10-24T02:26:56;99903.69;;;17.51;58.84
40490;BME280;26196;52.302;10.572;2022-10-24T02:31:01;99903.81;;;17.49;58.77
40490;BME280;26196;52.302;10.572;2022-10-24T02:35:03;99895.88;;;17.49;58.79
40490;BME280;26196;52.302;10.572;2022-10-24T02:39:06;99898.53;;;17.49;59.15
40490;BME280;26196;52.302;10.572;2022-10-24T02:43:08;99897.56;;;17.50;58.95
40490;BME280;26196;52.302;10.572;2022-10-24T02:47:11;99889.84;;;17.47;59.01
40490;BME280;26196;52.302;10.572;2022-10-24T02:51:13;99890.03;;;17.44;58.91
40490;BME280;26196;52.302;10.572;2022-10-24T02:55:14;99884.63;;;17.46;58.94
40490;BME280;26196;52.302;10.572;2022-10-24T02:59:15;99882.81;;;17.46;59.24
40490;BME280;26196;52.302;10.572;2022-10-24T03:03:15;99870.56;;;17.45;58.99
40490;BME280;26196;52.302;10.572;2022-10-24T03:07:16;99872.38;;;17.45;58.95
40490;BME280;26196;52.302;10.572;2022-10-24T03:11:16;99882.94;;;17.45;59.34
40490;BME280;26196;52.302;10.572;2022-10-24T03:15:18;99882.81;;;17.46;58.89
40490;BME280;26196;52.302;10.572;2022-10-24T03:19:18;99890.97;;;17.43;59.25
40490;BME280;26196;52.302;10.572;2022-10-24T03:23:19;99890.03;;;17.44;58.96
40490;BME280;26196;52.302;10.572;2022-10-24T03:27:21;99881.13;;;17.45;58.81
40490;BME280;26196;52.302;10.572;2022-10-24T03:31:22;99882.94;;;17.45;59.08
40490;BME280;26196;52.302;10.572;2022-10-24T03:35:22;99879.47;;;17.44;58.91
40490;BME280;26196;52.302;10.572;2022-10-24T03:39:23;99878.72;;;17.42;58.89
40490;BME280;26196;52.302;10.572;2022-10-24T03:43:23;99881.22;;;17.44;59.05
40490;BME280;26196;52.302;10.572;2022-10-24T03:47:24;99881.44;;;17.41;59.01
40490;BME280;26196;52.302;10.572;2022-10-24T03:51:24;99888.44;;;17.42;59.09
40490;BME280;26196;52.302;10.572;2022-10-24T03:55:26;99880.59;;;17.40;58.78
40490;BME280;26196;52.302;10.572;2022-10-24T03:59:26;99872.66;;;17.40;58.99
40490;BME280;26196;52.302;10.572;2022-10-24T04:03:27;99861.31;;;17.38;58.68
40490;BME280;26196;52.302;10.572;2022-10-24T04:07:27;99855.94;;;17.40;58.99
40490;BME280;26196;52.302;10.572;2022-10-24T04:11:28;99863.13;;;17.38;58.76
40490;BME280;26196;52.302;10.572;2022-10-24T04:15:28;99863.25;;;17.36;58.96
40490;BME280;26196;52.302;10.572;2022-10-24T04:19:28;99868.53;;;17.36;58.68
40490;BME280;26196;52.302;10.572;2022-10-24T04:23:29;99873.06;;;17.34;58.60
40490;BME280;26196;52.302;10.572;2022-10-24T04:27:33;99876.56;;;17.35;58.81
40490;BME280;26196;52.302;10.572;2022-10-24T04:31:35;99868.72;;;17.33;58.55
40490;BME280;26196;52.302;10.572;2022-10-24T04:35:36;99865.00;;;17.36;58.48
40490;BME280;26196;52.302;10.572;2022-10-24T04:39:36;99870.44;;;17.34;58.45
40490;BME280;26196;52.302;10.572;2022-10-24T04:43:37;99869.66;;;17.32;58.84
40490;BME280;26196;52.302;10.572;2022-10-24T04:47:37;99847.31;;;17.23;58.74
40490;BME280;26196;52.302;10.572;2022-10-24T04:51:37;99860.78;;;17.33;58.47
40490;BME280;26196;52.302;10.572;2022-10-24T04:55:38;99862.69;;;17.31;59.01
40490;BME280;26196;52.302;10.572;2022-10-24T04:59:38;99853.03;;;17.30;58.75
40490;BME280;26196;52.302;10.572;2022-10-24T05:03:39;99853.25;;;17.27;58.67
40490;BME280;26196;52.302;10.572;2022-10-24T05:07:39;99854.00;;;17.29;58.53
40490;BME280;26196;52.302;10.572;2022-10-24T05:11:40;99858.53;;;17.27;58.95
40490;BME280;26196;52.302;10.572;2022-10-24T05:15:42;99863.84;;;17.27;58.63
40490;BME280;26196;52.302;10.572;2022-10-24T05:19:43;99862.16;;;17.26;59.38
40490;BME280;26196;52.302;10.572;2022-10-24T05:23:43;99864.69;;;17.27;59.03
40490;BME280;26196;52.302;10.572;2022-10-24T05:27:44;99863.75;;;17.28;58.80
40490;BME280;26196;52.302;10.572;2022-10-24T05:31:44;99854.38;;;17.23;59.00
40490;BME280;26196;52.302;10.572;2022-10-24T05:35:45;99856.84;;;17.26;58.76
40490;BME280;26196;52.302;10.572;2022-10-24T05:39:45;99855.13;;;17.25;59.20
40490;BME280;26196;52.302;10.572;2022-10-24T05:43:46;99854.22;;;17.26;58.96
40490;BME280;26196;52.302;10.572;2022-10-24T05:47:46;99859.59;;;17.24;58.98
40490;BME280;26196;52.302;10.572;2022-10-24T05:51:47;99841.56;;;17.17;59.49
40490;BME280;26196;52.302;10.572;2022-10-24T05:55:47;99862.88;;;17.28;59.70
40490;BME280;26196;52.302;10.572;2022-10-24T05:59:48;99849.00;;;17.24;59.23
40490;BME280;26196;52.302;10.572;2022-10-24T06:03:48;99842.97;;;17.22;59.23
40490;BME280;26196;52.302;10.572;2022-10-24T06:07:49;99847.31;;;17.23;59.08
40490;BME280;26196;52.302;10.572;2022-10-24T06:11:50;99854.38;;;17.23;59.04
40490;BME280;26196;52.302;10.572;2022-10-24T06:15:50;99860.84;;;17.19;58.86
40490;BME280;26196;52.302;10.572;2022-10-24T06:19:50;99861.69;;;17.19;59.09
40490;BME280;26196;52.302;10.572;2022-10-24T06:23:51;99862.66;;;17.18;59.48
40490;BME280;26196;52.302;10.572;2022-10-24T06:27:52;99866.97;;;17.19;59.11
40490;BME280;26196;52.302;10.572;2022-10-24T06:31:52;99869.63;;;17.19;59.51
40490;BME280;26196;52.302;10.572;2022-10-24T06:35:53;99869.69;;;17.18;59.24
40490;BME280;26196;52.302;10.572;2022-10-24T06:39:53;99871.63;;;17.16;59.35
40490;BME280;26196;52.302;10.572;2022-10-24T06:43:54;99883.88;;;17.17;59.79
40490;BME280;26196;52.302;10.572;2022-10-24T06:47:55;99879.66;;;17.14;59.41
40490;BME280;26196;52.302;10.572;2022-10-24T06:51:56;99874.28;;;17.16;59.44
40490;BME280;26196;52.302;10.572;2022-10-24T06:56:04;99871.91;;;17.11;59.62
40490;BME280;26196;52.302;10.572;2022-10-24T07:00:06;99877.97;;;17.13;59.41
40490;BME280;26196;52.302;10.572;2022-10-24T07:04:08;99896.34;;;17.15;59.81
40490;BME280;26196;52.302;10.572;2022-10-24T07:08:09;99892.88;;;17.14;59.69
40490;BME280;26196;52.302;10.572;2022-10-24T07:12:10;99887.56;;;17.14;59.49
40490;BME280;26196;52.302;10.572;2022-10-24T07:16:11;99901.63;;;17.15;59.62
40490;BME280;26196;52.302;10.572;2022-10-24T07:20:12;99894.66;;;17.14;59.49
40490;BME280;26196;52.302;10.572;2022-10-24T07:24:13;99899.66;;;17.18;60.12
40490;BME280;26196;52.302;10.572;2022-10-24T07:28:13;99897.75;;;17.20;59.57
40490;BME280;26196;52.302;10.572;2022-10-24T07:32:14;99898.63;;;17.21;60.42
40490;BME280;26196;52.302;10.572;2022-10-24T07:36:17;99898.50;;;17.22;60.17
40490;BME280;26196;52.302;10.572;2022-10-24T07:40:19;99898.50;;;17.22;60.25
40490;BME280;26196;52.302;10.572;2022-10-24T07:44:20;99888.78;;;17.23;59.25
40490;BME280;26196;52.302;10.572;2022-10-24T07:48:21;99891.63;;;17.20;59.23
40490;BME280;26196;52.302;10.572;2022-10-24T07:52:22;99893.88;;;17.26;60.83
40490;BME280;26196;52.302;10.572;2022-10-24T07:56:22;99887.84;;;17.24;60.26
40490;BME280;26196;52.302;10.572;2022-10-24T08:00:23;99898.41;;;17.24;60.23
40490;BME280;26196;52.302;10.572;2022-10-24T08:04:24;99890.28;;;17.27;60.41
40490;BME280;26196;52.302;10.572;2022-10-24T08:08:24;99888.59;;;17.26;60.20
40490;BME280;26196;52.302;10.572;2022-10-24T08:12:25;99897.25;;;17.28;60.41
40490;BME280;26196;52.302;10.572;2022-10-24T08:16:25;99885.84;;;17.27;60.44
40490;BME280;26196;52.302;10.572;2022-10-24T08:20:26;99887.56;;;17.28;60.52
40490;BME280;26196;52.302;10.572;2022-10-24T08:24:26;99878.00;;;17.26;60.41
40490;BME280;26196;52.302;10.572;2022-10-24T08:28:27;99883.19;;;17.27;60.37
40490;BME280;26196;52.302;10.572;2022-10-24T08:32:27;99885.00;;;17.27;60.59
40490;BME280;26196;52.302;10.572;2022-10-24T08:36:30;99880.53;;;17.27;60.75
40490;BME280;26196;52.302;10.572;2022-10-24T08:40:31;99873.44;;;17.28;60.27
40490;BME280;26196;52.302;10.572;2022-10-24T08:49:09;99868.06;;;17.30;60.96
40490;BME280;26196;52.302;10.572;2022-10-24T08:53:18;99860.13;;;17.30;60.86
40490;BME280;26196;52.302;10.572;2022-10-24T08:57:25;99868.16;;;17.28;60.25
40490;BME280;26196;52.302;10.572;2022-10-24T09:05:42;99870.63;;;17.31;61.04
40490;BME280;26196;52.302;10.572;2022-10-24T09:09:48;99872.31;;;17.32;61.25
40490;BME280;26196;52.302;10.572;2022-10-24T09:13:49;99881.00;;;17.34;60.28
40490;BME280;26196;52.302;10.572;2022-10-24T09:17:50;99873.06;;;17.34;61.21
40490;BME280;26196;52.302;10.572;2022-10-24T09:21:52;99868.53;;;17.36;60.42
40490;BME280;26196;52.302;10.572;2022-10-24T09:25:55;99876.47;;;17.36;60.53
40490;BME280;26196;52.302;10.572;2022-10-24T09:29:57;99874.66;;;17.37;60.50
40490;BME280;26196;52.302;10.572;2022-10-24T09:33:59;99873.81;;;17.36;60.99
40490;BME280;26196;52.302;10.572;2022-10-24T09:38:39;99872.09;;;17.35;61.04
40490;BME280;26196;52.302;10.572;2022-10-24T09:42:47;99875.38;;;17.39;61.13
40490;BME280;26196;52.302;10.572;2022-10-24T09:46:49;99871.81;;;17.40;62.03
40490;BME280;26196;52.302;10.572;2022-10-24T09:50:50;99877.88;;;17.42;61.45
40490;BME280;26196;52.302;10.572;2022-10-24T09:55:18;99872.44;;;17.43;60.76
40490;BME280;26196;52.302;10.572;2022-10-24T10:04:02;99881.97;;;17.46;62.29
40490;BME280;26196;52.302;10.572;2022-10-24T10:08:09;99863.66;;;17.43;61.80
40490;BME280;26196;52.302;10.572;2022-10-24T10:12:40;99871.31;;;17.47;61.19
40490;BME280;26196;52.302;10.572;2022-10-24T10:16:41;99873.00;;;17.48;61.61
40490;BME280;26196;52.302;10.572;2022-10-24T10:20:42;99881.69;;;17.50;60.98
40490;BME280;26196;52.302;10.572;2022-10-24T10:24:43;99879.78;;;17.53;60.88
40490;BME280;26196;52.302;10.572;2022-10-24T10:29:02;99877.16;;;17.53;61.27
40490;BME280;26196;52.302;10.572;2022-10-24T10:33:19;99883.19;;;17.55;61.64
40490;BME280;26196;52.302;10.572;2022-10-24T10:37:28;99886.56;;;17.57;61.15
40490;BME280;26196;52.302;10.572;2022-10-24T10:41:36;99883.91;;;17.57;60.15
40490;BME280;26196;52.302;10.572;2022-10-24T10:45:50;99898.66;;;17.61;61.13
40490;BME280;26196;52.302;10.572;2022-10-24T10:49:57;99902.25;;;17.60;62.05
40490;BME280;26196;52.302;10.572;2022-10-24T11:11:27;99907.78;;;17.69;61.63
40490;BME280;26196;52.302;10.572;2022-10-24T11:15:33;99908.63;;;17.70;61.28
40490;BME280;26196;52.302;10.572;2022-10-24T11:19:43;99921.84;;;17.70;61.52
40490;BME280;26196;52.302;10.572;2022-10-24T11:23:53;99919.03;;;17.73;61.77
40490;BME280;26196;52.302;10.572;2022-10-24T11:42:00;99927.59;;;17.77;61.12
40490;BME280;26196;52.302;10.572;2022-10-24T11:45:45;99916.94;;;17.78;61.13
40490;BME280;26196;52.302;10.572;2022-10-24T11:50:10;99905.59;;;17.76;61.29
40490;BME280;26196;52.302;10.572;2022-10-24T11:54:20;99910.50;;;17.82;61.40
40490;BME280;26196;52.302;10.572;2022-10-24T11:58:25;99895.44;;;17.83;60.69
40490;BME280;26196;52.302;10.572;2022-10-24T12:02:31;99898.97;;;17.83;61.31
40490;BME280;26196;52.302;10.572;2022-10-24T12:19:13;99914.66;;;17.86;60.91
40490;BME280;26196;52.302;10.572;2022-10-24T12:23:23;99909.34;;;17.86;61.41
40490;BME280;26196;52.302;10.572;2022-10-24T12:27:34;99908.28;;;17.89;62.00
40490;BME280;26196;52.302;10.572;2022-10-24T12:31:36;99897.03;;;17.85;61.74
40490;BME280;26196;52.302;10.572;2022-10-24T12:39:46;99898.53;;;17.89;61.92
40490;BME280;26196;52.302;10.572;2022-10-24T12:43:47;99886.06;;;17.91;61.53
40490;BME280;26196;52.302;10.572;2022-10-24T12:51:52;99908.91;;;17.92;61.15
40490;BME280;26196;52.302;10.572;2022-10-24T13:05:29;99899.84;;;17.97;61.05
40490;BME280;26196;52.302;10.572;2022-10-24T13:22:29;99896.00;;;18.01;61.43
40490;BME280;26196;52.302;10.572;2022-10-24T13:26:39;99898.56;;;18.02;60.81
40490;BME280;26196;52.302;10.572;2022-10-24T13:30:40;99908.19;;;18.03;60.81
40490;BME280;26196;52.302;10.572;2022-10-24T13:38:57;99915.22;;;18.04;61.05
40490;BME280;26196;52.302;10.572;2022-10-24T13:43:02;99916.88;;;18.05;60.74
40490;BME280;26196;52.302;10.572;2022-10-24T13:55:19;99927.41;;;18.07;60.39
40490;BME280;26196;52.302;10.572;2022-10-24T14:03:32;99921.22;;;18.06;60.87
40490;BME280;26196;52.302;10.572;2022-10-24T14:07:33;99920.06;;;18.10;60.69
40490;BME280;26196;52.302;10.572;2022-10-24T14:11:38;99923.69;;;18.09;60.59
40490;BME280;26196;52.302;10.572;2022-10-24T14:15:49;99921.88;;;18.10;60.68
40490;BME280;26196;52.302;10.572;2022-10-24T14:24:18;99927.94;;;18.12;60.51
40490;BME280;26196;52.302;10.572;2022-10-24T14:28:20;99932.25;;;18.13;61.27
40490;BME280;26196;52.302;10.572;2022-10-24T14:32:24;99932.16;;;18.14;60.76
40490;BME280;26196;52.302;10.572;2022-10-24T14:36:31;99941.81;;;18.15;60.75
40490;BME280;26196;52.302;10.572;2022-10-24T14:40:32;99943.50;;;18.17;61.00
40490;BME280;26196;52.302;10.572;2022-10-24T14:44:33;99937.34;;;18.16;61.10
40490;BME280;26196;52.302;10.572;2022-10-24T14:48:35;99937.34;;;18.16;60.45
40490;BME280;26196;52.302;10.572;2022-10-24T14:52:35;99932.88;;;18.17;60.82
40490;BME280;26196;52.302;10.572;2022-10-24T14:56:38;99932.25;;;18.13;60.69
40490;BME280;26196;52.302;10.572;2022-10-24T15:00:40;99940.84;;;18.17;61.02
40490;BME280;26196;52.302;10.572;2022-10-24T15:04:42;99948.69;;;18.18;60.90
40490;BME280;26196;52.302;10.572;2022-10-24T15:09:00;99953.03;;;18.19;60.99
40490;BME280;26196;52.302;10.572;2022-10-24T15:13:10;99952.19;;;18.19;60.42
40490;BME280;26196;52.302;10.572;2022-10-24T15:21:20;99950.38;;;18.19;60.25
40490;BME280;26196;52.302;10.572;2022-10-24T15:25:33;99958.13;;;18.22;60.92
40490;BME280;26196;52.302;10.572;2022-10-24T15:29:34;99951.97;;;18.22;60.44
40490;BME280;26196;52.302;10.572;2022-10-24T15:38:31;99965.13;;;18.23;60.79
40490;BME280;26196;52.302;10.572;2022-10-24T15:42:32;99969.47;;;18.24;60.42
40490;BME280;26196;52.302;10.572;2022-10-24T15:46:32;99978.25;;;18.25;60.47
40490;BME280;26196;52.302;10.572;2022-10-24T15:50:33;99966.81;;;18.24;60.51
40490;BME280;26196;52.302;10.572;2022-10-24T15:54:33;99969.47;;;18.24;60.42
40490;BME280;26196;52.302;10.572;2022-10-24T15:58:34;99978.16;;;18.26;60.36
40490;BME280;26196;52.302;10.572;2022-10-24T16:02:34;99976.47;;;18.25;60.26
40490;BME280;26196;52.302;10.572;2022-10-24T16:06:35;99989.72;;;18.25;60.75
40490;BME280;26196;52.302;10.572;2022-10-24T16:10:35;99986.09;;;18.26;60.38
40490;BME280;26196;52.302;10.572;2022-10-24T16:14:36;99993.97;;;18.28;60.50
40490;BME280;26196;52.302;10.572;2022-10-24T16:18:36;99996.50;;;18.29;60.50
40490;BME280;26196;52.302;10.572;2022-10-24T16:22:37;100002.75;;;18.28;60.58
40490;BME280;26196;52.302;10.572;2022-10-24T16:26:39;99995.84;;;18.26;60.48
40490;BME280;26196;52.302;10.572;2022-10-24T16:30:40;99990.03;;;18.21;60.20
40490;BME280;26196;52.302;10.572;2022-10-24T16:34:41;100007.94;;;18.30;60.29
40490;BME280;26196;52.302;10.572;2022-10-24T16:38:43;100001.78;;;18.29;60.59
40490;BME280;26196;52.302;10.572;2022-10-24T16:42:44;100014.09;;;18.30;60.12
40490;BME280;26196;52.302;10.572;2022-10-24T16:46:47;100018.44;;;18.31;60.10
40490;BME280;26196;52.302;10.572;2022-10-24T16:50:47;100001.03;;;18.27;60.29
40490;BME280;26196;52.302;10.572;2022-10-24T16:54:48;100005.19;;;18.31;60.54
40490;BME280;26196;52.302;10.572;2022-10-24T16:58:48;100007.75;;;18.33;60.37
40490;BME280;26196;52.302;10.572;2022-10-24T17:02:51;100015.78;;;18.31;60.50
40490;BME280;26196;52.302;10.572;2022-10-24T17:06:51;100020.13;;;18.32;60.31
40490;BME280;26196;52.302;10.572;2022-10-24T17:10:55;100016.53;;;18.33;60.24
40490;BME280;26196;52.302;10.572;2022-10-24T17:14:56;100013.88;;;18.33;59.94
40490;BME280;26196;52.302;10.572;2022-10-24T17:18:57;100021.72;;;18.35;59.99
40490;BME280;26196;52.302;10.572;2022-10-24T17:22:57;100021.63;;;18.36;60.12
40490;BME280;26196;52.302;10.572;2022-10-24T17:26:58;100020.03;;;18.34;59.50
40490;BME280;26196;52.302;10.572;2022-10-24T17:41:02;100032.00;;;18.40;59.62
40490;BME280;26196;52.302;10.572;2022-10-24T17:45:17;100029.38;;;18.40;59.54
40490;BME280;26196;52.302;10.572;2022-10-24T17:49:19;100028.53;;;18.39;59.34
40490;BME280;26196;52.302;10.572;2022-10-24T17:53:19;100025.78;;;18.41;59.61
40490;BME280;26196;52.302;10.572;2022-10-24T17:57:20;100034.66;;;18.40;59.48
40490;BME280;26196;52.302;10.572;2022-10-24T18:01:20;100041.69;;;18.41;60.22
40490;BME280;26196;52.302;10.572;2022-10-24T18:05:21;100041.69;;;18.41;60.22
40490;BME280;26196;52.302;10.572;2022-10-24T18:09:22;100037.22;;;18.41;59.55
40490;BME280;26196;52.302;10.572;2022-10-24T18:13:22;100043.38;;;18.42;59.62
40490;BME280;26196;52.302;10.572;2022-10-24T18:17:22;100040.72;;;18.42;59.25
40490;BME280;26196;52.302;10.572;2022-10-24T18:21:24;100046.97;;;18.41;59.91
40490;BME280;26196;52.302;10.572;2022-10-24T18:25:24;100054.06;;;18.40;59.75
40490;BME280;26196;52.302;10.572;2022-10-24T18:29:25;100046.22;;;18.39;58.58
40490;BME280;26196;52.302;10.572;2022-10-24T18:33:25;100053.41;;;18.36;58.52
40490;BME280;26196;52.302;10.572;2022-10-24T18:37:26;100064.78;;;18.39;58.99
40490;BME280;26196;52.302;10.572;2022-10-24T18:45:30;100069.53;;;18.33;59.06
40490;BME280;26196;52.302;10.572;2022-10-24T18:49:32;100085.22;;;18.36;58.69
40490;BME280;26196;52.302;10.572;2022-10-24T18:53:37;100082.66;;;18.35;58.04
40490;BME280;26196;52.302;10.572;2022-10-24T18:57:40;100081.81;;;18.34;58.78
40490;BME280;26196;52.302;10.572;2022-10-24T19:01:46;100080.75;;;18.37;59.57
40490;BME280;26196;52.302;10.572;2022-10-24T19:06:20;100084.38;;;18.36;59.81
40490;BME280;26196;52.302;10.572;2022-10-24T19:10:23;100078.31;;;18.34;59.29
40490;BME280;26196;52.302;10.572;2022-10-24T19:14:24;100074.72;;;18.35;59.46
40490;BME280;26196;52.302;10.572;2022-10-24T19:18:27;100088.06;;;18.33;59.93
40490;BME280;26196;52.302;10.572;2022-10-24T19:22:29;100095.19;;;18.33;59.50
40490;BME280;26196;52.302;10.572;2022-10-24T19:26:30;100096.97;;;18.32;59.92
40490;BME280;26196;52.302;10.572;2022-10-24T19:30:30;100096.03;;;18.33;59.40
40490;BME280;26196;52.302;10.572;2022-10-24T19:34:31;100085.72;;;18.29;59.73
40490;BME280;26196;52.302;10.572;2022-10-24T19:38:32;100092.63;;;18.31;60.10
40490;BME280;26196;52.302;10.572;2022-10-24T19:42:32;100094.31;;;18.32;60.16
40490;BME280;26196;52.302;10.572;2022-10-24T19:46:33;100087.31;;;18.31;60.29
40490;BME280;26196;52.302;10.572;2022-10-24T19:50:34;100090.94;;;18.30;60.55
40490;BME280;26196;52.302;10.572;2022-10-24T19:54:35;100094.50;;;18.29;60.49
40490;BME280;26196;52.302;10.572;2022-10-24T19:58:35;100091.88;;;18.29;60.25
40490;BME280;26196;52.302;10.572;2022-10-24T20:02:36;100095.47;;;18.28;59.99
40490;BME280;26196;52.302;10.572;2022-10-24T20:06:36;100100.97;;;18.25;60.01
40490;BME280;26196;52.302;10.572;2022-10-24T20:10:37;100111.38;;;18.28;60.29
40490;BME280;26196;52.302;10.572;2022-10-24T20:14:37;100114.97;;;18.27;60.22
40490;BME280;26196;52.302;10.572;2022-10-24T20:18:38;100119.53;;;18.25;60.36
40490;BME280;26196;52.302;10.572;2022-10-24T20:22:40;100122.19;;;18.25;60.58
40490;BME280;26196;52.302;10.572;2022-10-24T20:26:40;100123.94;;;18.25;60.67
40490;BME280;26196;52.302;10.572;2022-10-24T20:30:43;100129.56;;;18.20;60.27
40490;BME280;26196;52.302;10.572;2022-10-24T20:34:44;100133.72;;;18.24;60.94
40490;BME280;26196;52.302;10.572;2022-10-24T20:38:45;100136.34;;;18.24;60.14
40490;BME280;26196;52.302;10.572;2022-10-24T20:42:45;100129.56;;;18.20;60.18
40490;BME280;26196;52.302;10.572;2022-10-24T20:46:46;100128.53;;;18.23;60.16
40490;BME280;26196;52.302;10.572;2022-10-24T20:50:46;100125.00;;;18.22;60.11
40490;BME280;26196;52.302;10.572;2022-10-24T20:54:47;100132.94;;;18.22;59.86
40490;BME280;26196;52.302;10.572;2022-10-24T20:58:49;100134.03;;;18.20;59.93
40490;BME280;26196;52.302;10.572;2022-10-24T21:02:50;100138.38;;;18.21;60.07
40490;BME280;26196;52.302;10.572;2022-10-24T21:06:50;100140.16;;;18.20;60.26
40490;BME280;26196;52.302;10.572;2022-10-24T21:10:51;100137.59;;;18.19;60.03
40490;BME280;26196;52.302;10.572;2022-10-24T21:14:51;100137.59;;;18.19;60.28
40490;BME280;26196;52.302;10.572;2022-10-24T21:18:52;100124.31;;;18.06;59.84
40490;BME280;26196;52.302;10.572;2022-10-24T21:22:53;100136.75;;;18.18;60.07
40490;BME280;26196;52.302;10.572;2022-10-24T21:26:53;100154.56;;;18.16;59.67
40490;BME280;26196;52.302;10.572;2022-10-24T21:30:54;100152.75;;;18.17;59.19
40490;BME280;26196;52.302;10.572;2022-10-24T21:34:54;100165.16;;;18.16;59.07
40490;BME280;26196;52.302;10.572;2022-10-24T21:38:56;100173.09;;;18.16;59.33
40490;BME280;26196;52.302;10.572;2022-10-24T21:42:59;100169.59;;;18.15;59.17
40490;BME280;26196;52.302;10.572;2022-10-24T21:46:59;100171.41;;;18.15;59.01
40490;BME280;26196;52.302;10.572;2022-10-24T21:51:12;100176.78;;;18.13;59.03
40490;BME280;26196;52.302;10.572;2022-10-24T21:55:12;100183.69;;;18.16;59.22
40490;BME280;26196;52.302;10.572;2022-10-24T21:59:15;100182.84;;;18.15;58.61
40490;BME280;26196;52.302;10.572;2022-10-24T22:03:16;100186.44;;;18.14;58.79
40490;BME280;26196;52.302;10.572;2022-10-24T22:07:16;100182.19;;;18.12;59.14
40490;BME280;26196;52.302;10.572;2022-10-24T22:11:21;100183.88;;;18.13;58.52
40490;BME280;26196;52.302;10.572;2022-10-24T22:15:21;100181.44;;;18.10;58.93
40490;BME280;26196;52.302;10.572;2022-10-24T22:19:22;100190.16;;;18.12;58.74
40490;BME280;26196;52.302;10.572;2022-10-24T22:23:23;100196.50;;;18.09;58.46
40490;BME280;26196;52.302;10.572;2022-10-24T22:27:23;100199.97;;;18.10;58.95
40490;BME280;26196;52.302;10.572;2022-10-24T22:31:25;100218.53;;;18.10;59.58
40490;BME280;26196;52.302;10.572;2022-10-24T22:35:26;100217.75;;;18.08;59.63
40490;BME280;26196;52.302;10.572;2022-10-24T22:39:27;100208.13;;;18.07;59.88
40490;BME280;26196;52.302;10.572;2022-10-24T22:43:28;100217.13;;;18.04;59.33
40490;BME280;26196;52.302;10.572;2022-10-24T22:51:41;100224.19;;;18.04;59.58
40490;BME280;26196;52.302;10.572;2022-10-24T22:59:53;100229.69;;;18.01;59.24
40490;BME280;26196;52.302;10.572;2022-10-24T23:08:04;100238.38;;;18.03;59.45
40490;BME280;26196;52.302;10.572;2022-10-24T23:12:14;100238.47;;;18.01;59.19
40490;BME280;26196;52.302;10.572;2022-10-24T23:17:12;100245.47;;;18.02;58.75
40490;BME280;26196;52.302;10.572;2022-10-24T23:20:55;100243.13;;;17.98;59.50
40490;BME280;26196;52.302;10.572;2022-10-24T23:25:00;100250.88;;;18.01;58.69
40490;BME280;26196;52.302;10.572;2022-10-24T23:29:11;100249.94;;;18.02;58.75
40490;BME280;26196;52.302;10.572;2022-10-24T23:33:21;100243.88;;;18.00;58.68
40490;BME280;26196;52.302;10.572;2022-10-24T23:37:34;100242.91;;;18.01;58.26
40490;BME280;26196;52.302;10.572;2022-10-24T23:41:35;100248.34;;;17.99;58.57
40490;BME280;26196;52.302;10.572;2022-10-24T23:45:47;100251.81;;;18.00;58.52
40490;BME280;26196;52.302;10.572;2022-10-24T23:50:08;100251.91;;;17.98;58.69
40490;BME280;26196;52.302;10.572;2022-10-24T23:54:12;100254.56;;;17.98;58.40
40490;BME280;26196;52.302;10.572;2022-10-24T23:58:12;100254.66;;;17.97;58.32
